Time;durP1;ratioP1;P1;durP2;ratioP2;P2;SDS_P1;SDS_P2;PMS_P1;PMS_P2;Temp;Humidity;BMP_temperature;BMP_pressure;BME280_temperature;BME280_humidity;BME280_pressure;Samples;Min_cycle;Max_cycle;Signal;HPM_P1;HPM_P2
2024/02/18 00:00:53;;;;;;;18.48;10.55;;;11.80;99.90;;;;;;2084208;28;20021;-71
2024/02/18 00:01:53;;;;;;;15.80;10.35;;;11.80;99.90;;;;;;2082714;28;20034;-71
2024/02/18 00:02:54;;;;;;;20.88;11.68;;;11.80;99.90;;;;;;2083248;28;20505;-71
2024/02/18 00:03:54;;;;;;;21.10;9.95;;;11.80;99.90;;;;;;2084208;28;20493;-71
2024/02/18 00:04:56;;;;;;;25.02;11.43;;;11.80;99.90;;;;;;2084837;28;20086;-72
2024/02/18 00:05:57;;;;;;;18.65;10.68;;;11.80;99.90;;;;;;2081919;28;20025;-71
2024/02/18 00:06:58;;;;;;;14.90;10.00;;;11.80;99.90;;;;;;2084331;28;20433;-72
2024/02/18 00:08:02;;;;;;;18.60;10.00;;;11.80;99.90;;;;;;2082445;28;20502;-71
2024/02/18 00:09:03;;;;;;;18.15;10.18;;;11.80;99.90;;;;;;2083335;28;20124;-71
2024/02/18 00:10:04;;;;;;;17.60;10.95;;;11.80;99.90;;;;;;2081566;28;20033;-71
2024/02/18 00:11:05;;;;;;;20.67;11.38;;;11.80;99.90;;;;;;2082569;28;20029;-71
2024/02/18 00:12:06;;;;;;;16.85;10.65;;;11.80;99.90;;;;;;2082011;28;20083;-72
2024/02/18 00:13:08;;;;;;;20.85;10.43;;;11.80;99.90;;;;;;2084100;28;20060;-72
2024/02/18 00:14:08;;;;;;;15.27;10.30;;;11.80;99.90;;;;;;2084364;28;20078;-72
2024/02/18 00:15:09;;;;;;;17.38;10.52;;;11.80;99.90;;;;;;2084666;28;20029;-72
2024/02/18 00:16:10;;;;;;;20.90;10.07;;;11.80;99.90;;;;;;2081984;28;21822;-71
2024/02/18 00:17:12;;;;;;;16.73;10.52;;;11.80;99.90;;;;;;2084053;28;20344;-72
2024/02/18 00:18:13;;;;;;;15.80;10.80;;;11.80;99.90;;;;;;2084697;28;20057;-72
2024/02/18 00:19:13;;;;;;;19.63;11.45;;;11.80;99.90;;;;;;2083780;28;20061;-72
2024/02/18 00:20:15;;;;;;;19.13;10.70;;;11.80;99.90;;;;;;2085664;28;20438;-72
2024/02/18 00:21:18;;;;;;;18.15;10.32;;;11.80;99.90;;;;;;2084529;28;20032;-72
2024/02/18 00:22:19;;;;;;;16.45;10.15;;;11.80;99.90;;;;;;2084997;28;20029;-72
2024/02/18 00:23:19;;;;;;;16.75;10.18;;;11.90;99.90;;;;;;2085432;28;20108;-71
2024/02/18 00:24:20;;;;;;;23.73;10.57;;;11.90;99.90;;;;;;2083518;28;20440;-71
2024/02/18 00:25:20;;;;;;;20.60;9.48;;;11.90;99.90;;;;;;2084923;28;20366;-71
2024/02/18 00:26:21;;;;;;;16.98;11.07;;;11.90;99.90;;;;;;2082097;28;20025;-71
2024/02/18 00:27:21;;;;;;;16.08;10.43;;;11.90;99.90;;;;;;2083016;28;20049;-71
2024/02/18 00:28:22;;;;;;;18.02;11.15;;;11.90;99.90;;;;;;2082991;28;20044;-71
2024/02/18 00:29:25;;;;;;;16.67;10.65;;;11.90;99.90;;;;;;2083426;28;20477;-70
2024/02/18 00:30:26;;;;;;;17.55;9.82;;;11.90;99.90;;;;;;2083503;28;20025;-71
2024/02/18 00:31:27;;;;;;;16.45;10.25;;;11.90;99.90;;;;;;2082517;28;20025;-72
2024/02/18 00:32:27;;;;;;;18.88;10.55;;;11.90;99.90;;;;;;2083567;28;20091;-71
2024/02/18 00:33:28;;;;;;;17.00;10.07;;;11.90;99.90;;;;;;2084733;28;20032;-72
2024/02/18 00:34:30;;;;;;;18.58;9.85;;;11.90;99.90;;;;;;2083355;28;20029;-71
2024/02/18 00:35:30;;;;;;;14.38;9.38;;;11.90;99.90;;;;;;2083808;28;20064;-71
2024/02/18 00:36:31;;;;;;;17.08;10.40;;;11.90;99.90;;;;;;2082529;28;20033;-71
2024/02/18 00:37:31;;;;;;;15.43;9.65;;;11.90;99.90;;;;;;2082187;28;20068;-71
2024/02/18 00:38:32;;;;;;;18.23;10.25;;;11.90;99.90;;;;;;2083864;28;20509;-71
2024/02/18 00:39:32;;;;;;;16.42;9.02;;;11.90;99.90;;;;;;2082923;28;20108;-71
2024/02/18 00:40:33;;;;;;;19.95;8.93;;;11.90;99.90;;;;;;2084371;28;20377;-71
2024/02/18 00:41:33;;;;;;;22.77;9.25;;;11.90;99.90;;;;;;2085220;28;20021;-71
2024/02/18 00:42:34;;;;;;;14.85;9.70;;;11.90;99.90;;;;;;2087286;28;20104;-71
2024/02/18 00:43:34;;;;;;;15.98;9.05;;;11.90;99.90;;;;;;2084787;28;20501;-71
2024/02/18 00:44:35;;;;;;;15.30;9.50;;;11.90;99.90;;;;;;2085125;28;20032;-71
2024/02/18 00:45:35;;;;;;;12.20;8.63;;;11.90;99.90;;;;;;2084245;28;20070;-71
2024/02/18 00:46:36;;;;;;;18.80;10.38;;;12.00;99.90;;;;;;2085238;28;20026;-71
2024/02/18 00:47:36;;;;;;;16.15;9.20;;;12.00;99.90;;;;;;2085989;28;20021;-71
2024/02/18 00:48:37;;;;;;;16.45;9.40;;;11.90;99.90;;;;;;2084443;28;20116;-71
2024/02/18 00:49:38;;;;;;;17.55;9.27;;;11.90;99.90;;;;;;2084482;28;20025;-70
2024/02/18 00:50:38;;;;;;;15.65;9.38;;;12.00;99.90;;;;;;2085615;28;20033;-72
2024/02/18 00:51:39;;;;;;;16.08;9.50;;;12.00;99.90;;;;;;2085071;28;20072;-71
2024/02/18 00:52:40;;;;;;;13.43;8.50;;;11.90;99.90;;;;;;2086551;28;20087;-71
2024/02/18 00:53:40;;;;;;;16.73;8.95;;;12.00;99.90;;;;;;2084496;28;20470;-71
2024/02/18 00:54:41;;;;;;;15.85;9.32;;;11.90;99.90;;;;;;2084345;28;20887;-71
2024/02/18 00:55:43;;;;;;;20.90;9.57;;;12.00;99.90;;;;;;2086127;28;20033;-71
2024/02/18 00:56:43;;;;;;;12.30;9.05;;;12.00;99.90;;;;;;2086008;28;20044;-71
2024/02/18 00:57:44;;;;;;;19.33;9.55;;;12.00;99.90;;;;;;2084194;28;20057;-72
2024/02/18 00:58:47;;;;;;;12.98;8.48;;;12.00;99.90;;;;;;2083152;28;20025;-71
2024/02/18 00:59:48;;;;;;;12.98;8.55;;;12.00;99.90;;;;;;2083030;28;20033;-72
2024/02/18 01:00:48;;;;;;;11.57;8.18;;;12.00;99.90;;;;;;2087115;28;20473;-71
2024/02/18 01:01:49;;;;;;;13.30;8.98;;;12.00;99.90;;;;;;2084647;28;20481;-71
2024/02/18 01:02:50;;;;;;;13.73;7.97;;;12.00;99.90;;;;;;2084663;28;21045;-71
2024/02/18 01:03:50;;;;;;;18.17;8.48;;;12.00;99.90;;;;;;2085537;28;20037;-71
2024/02/18 01:04:51;;;;;;;12.93;7.65;;;12.00;99.90;;;;;;2084517;28;20057;-71
2024/02/18 01:05:51;;;;;;;14.70;7.53;;;12.00;99.90;;;;;;2086659;28;20496;-71
2024/02/18 01:06:52;;;;;;;14.95;8.23;;;12.00;99.90;;;;;;2086099;28;20037;-71
2024/02/18 01:07:52;;;;;;;10.82;7.15;;;12.00;99.90;;;;;;2083884;28;20059;-71
2024/02/18 01:08:53;;;;;;;14.55;7.95;;;12.00;99.90;;;;;;2086240;28;20185;-71
2024/02/18 01:09:53;;;;;;;15.65;8.18;;;12.00;99.90;;;;;;2084271;28;20098;-71
2024/02/18 01:10:54;;;;;;;12.27;7.93;;;12.00;99.90;;;;;;2084506;28;20470;-71
2024/02/18 01:11:54;;;;;;;13.38;7.07;;;12.00;99.90;;;;;;2085105;28;20412;-71
2024/02/18 01:12:55;;;;;;;12.93;7.88;;;12.00;99.90;;;;;;2085198;28;20080;-71
2024/02/18 01:13:56;;;;;;;14.82;7.60;;;12.00;99.90;;;;;;2084349;28;20049;-71
2024/02/18 01:14:56;;;;;;;13.63;7.78;;;12.00;99.90;;;;;;2084797;28;20017;-71
2024/02/18 01:15:57;;;;;;;13.40;6.82;;;12.00;99.90;;;;;;2084772;28;20462;-71
2024/02/18 01:16:58;;;;;;;14.00;7.22;;;12.00;99.90;;;;;;2084062;28;20026;-71
2024/02/18 01:17:58;;;;;;;12.75;7.55;;;12.00;99.90;;;;;;2085347;28;20049;-71
2024/02/18 01:18:59;;;;;;;12.65;6.80;;;12.00;99.90;;;;;;2085852;28;20049;-72
2024/02/18 01:20:00;;;;;;;12.48;7.70;;;12.00;99.90;;;;;;2083280;28;20052;-71
2024/02/18 01:21:00;;;;;;;11.70;6.88;;;12.00;99.90;;;;;;2086423;28;20072;-72
2024/02/18 01:22:01;;;;;;;14.02;7.05;;;12.00;99.90;;;;;;2084179;28;20032;-71
2024/02/18 01:23:01;;;;;;;10.25;6.72;;;12.00;99.90;;;;;;2086643;28;20064;-71
2024/02/18 01:24:02;;;;;;;9.73;6.35;;;12.00;99.90;;;;;;2085257;28;20025;-71
2024/02/18 01:25:03;;;;;;;14.23;6.28;;;12.00;99.90;;;;;;2085932;28;20392;-71
2024/02/18 01:26:05;;;;;;;13.73;7.00;;;12.00;99.90;;;;;;2085774;28;20029;-71
2024/02/18 01:27:05;;;;;;;12.88;6.30;;;12.00;99.90;;;;;;2085007;28;20158;-71
2024/02/18 01:28:06;;;;;;;10.55;6.40;;;12.00;99.90;;;;;;2082857;28;20029;-71
2024/02/18 01:29:06;;;;;;;11.57;5.95;;;12.00;99.90;;;;;;2085776;28;20036;-72
2024/02/18 01:30:07;;;;;;;12.25;6.22;;;12.10;99.90;;;;;;2084253;28;20032;-71
2024/02/18 01:31:08;;;;;;;9.60;5.90;;;12.10;99.90;;;;;;2083533;28;20044;-71
2024/02/18 01:32:08;;;;;;;12.43;6.55;;;12.00;99.90;;;;;;2084321;28;20056;-72
2024/02/18 01:33:09;;;;;;;10.70;6.20;;;12.10;99.90;;;;;;2083798;28;20369;-71
2024/02/18 01:34:10;;;;;;;9.70;5.70;;;12.10;99.90;;;;;;2086186;28;20029;-71
2024/02/18 01:35:10;;;;;;;9.23;5.55;;;12.10;99.90;;;;;;2088428;28;20036;-72
2024/02/18 01:36:11;;;;;;;9.82;5.55;;;12.10;99.90;;;;;;2084466;28;20493;-71
2024/02/18 01:37:12;;;;;;;15.57;6.55;;;12.00;99.90;;;;;;2085212;28;20029;-72
2024/02/18 01:38:12;;;;;;;9.40;5.60;;;12.10;99.90;;;;;;2084161;28;20123;-71
2024/02/18 01:39:13;;;;;;;11.10;5.97;;;12.00;99.90;;;;;;2085774;28;20124;-71
2024/02/18 01:40:13;;;;;;;12.55;5.10;;;12.10;99.90;;;;;;2083306;28;20021;-71
2024/02/18 01:41:14;;;;;;;8.85;5.78;;;12.10;99.90;;;;;;2084125;28;20478;-71
2024/02/18 01:42:14;;;;;;;7.97;5.35;;;12.00;99.90;;;;;;2083942;28;20036;-71
2024/02/18 01:43:17;;;;;;;11.13;5.43;;;12.00;99.90;;;;;;2084003;28;20494;-72
2024/02/18 01:44:18;;;;;;;10.57;5.43;;;12.00;99.90;;;;;;2085475;28;20024;-71
2024/02/18 01:45:18;;;;;;;8.98;5.15;;;12.00;99.90;;;;;;2084431;28;20477;-70
2024/02/18 01:46:22;;;;;;;12.40;5.93;;;12.00;99.90;;;;;;2087121;28;20029;-71
2024/02/18 01:47:23;;;;;;;8.60;5.40;;;12.10;99.90;;;;;;2083945;28;20450;-67
2024/02/18 01:48:24;;;;;;;11.55;5.32;;;12.00;99.90;;;;;;2085909;28;20458;-67
2024/02/18 01:49:25;;;;;;;10.98;5.72;;;12.00;99.90;;;;;;2090967;28;20374;-67
2024/02/18 01:50:26;;;;;;;9.98;5.32;;;12.00;99.90;;;;;;2093481;28;20156;-68
2024/02/18 01:51:27;;;;;;;9.35;5.53;;;12.00;99.90;;;;;;2086588;28;20115;-67
2024/02/18 01:52:28;;;;;;;11.43;4.82;;;12.00;99.90;;;;;;2087111;28;20033;-67
2024/02/18 01:53:29;;;;;;;10.13;5.13;;;12.00;99.90;;;;;;2085765;28;20078;-67
2024/02/18 01:54:33;;;;;;;12.75;5.20;;;12.00;99.90;;;;;;2086418;28;20047;-67
2024/02/18 01:55:34;;;;;;;10.10;5.28;;;12.10;99.90;;;;;;2081560;28;20048;-69
2024/02/18 01:56:34;;;;;;;11.80;5.45;;;12.00;99.90;;;;;;2084941;28;20477;-71
2024/02/18 01:57:37;;;;;;;11.15;5.07;;;12.00;99.90;;;;;;2085459;28;20022;-72
2024/02/18 01:58:38;;;;;;;10.50;4.68;;;12.10;99.90;;;;;;2084080;28;20513;-71
2024/02/18 01:59:40;;;;;;;8.60;5.05;;;12.10;99.90;;;;;;2084552;28;20543;-71
2024/02/18 02:00:43;;;;;;;11.73;5.15;;;12.10;99.90;;;;;;2083254;28;20441;-71
2024/02/18 02:01:44;;;;;;;14.73;5.13;;;12.00;99.90;;;;;;2084650;28;20053;-72
2024/02/18 02:02:47;;;;;;;10.15;4.85;;;12.00;99.90;;;;;;2087932;28;20095;-71
2024/02/18 02:03:49;;;;;;;11.55;5.40;;;12.10;99.90;;;;;;2084062;28;20386;-71
2024/02/18 02:04:50;;;;;;;8.68;5.22;;;12.10;99.90;;;;;;2086076;28;20458;-71
2024/02/18 02:05:54;;;;;;;8.38;5.00;;;12.00;99.90;;;;;;2084381;28;20382;-72
2024/02/18 02:06:54;;;;;;;9.98;5.10;;;12.10;99.90;;;;;;2084097;28;20040;-71
2024/02/18 02:07:55;;;;;;;10.75;4.85;;;12.00;99.90;;;;;;2085184;28;20450;-71
2024/02/18 02:08:59;;;;;;;9.05;5.32;;;12.00;99.90;;;;;;2087422;28;20017;-71
2024/02/18 02:10:01;;;;;;;7.72;5.13;;;12.10;99.90;;;;;;2086840;28;20508;-71
2024/02/18 02:11:02;;;;;;;10.50;4.38;;;12.10;99.90;;;;;;2083671;28;20672;-72
2024/02/18 02:12:02;;;;;;;11.02;4.95;;;12.00;99.90;;;;;;2085260;28;20647;-71
2024/02/18 02:13:05;;;;;;;7.80;4.40;;;12.00;99.90;;;;;;2088830;28;20090;-72
2024/02/18 02:14:05;;;;;;;8.18;4.72;;;12.10;99.90;;;;;;2084350;28;20021;-72
2024/02/18 02:15:06;;;;;;;10.02;5.07;;;12.10;99.90;;;;;;2084196;28;20029;-71
2024/02/18 02:16:07;;;;;;;8.00;5.15;;;12.00;99.90;;;;;;2087256;28;20053;-72
2024/02/18 02:17:08;;;;;;;8.20;4.30;;;12.00;99.90;;;;;;2083682;28;20029;-72
2024/02/18 02:18:08;;;;;;;8.30;4.88;;;12.10;99.90;;;;;;2083928;28;20026;-71
2024/02/18 02:19:09;;;;;;;8.40;4.68;;;12.00;99.90;;;;;;2084765;28;20139;-71
2024/02/18 02:20:09;;;;;;;9.02;4.15;;;12.00;99.90;;;;;;2082494;28;20028;-71
2024/02/18 02:21:10;;;;;;;12.68;4.88;;;12.10;99.90;;;;;;2084369;28;20111;-72
2024/02/18 02:22:11;;;;;;;10.85;4.80;;;12.10;99.90;;;;;;2084203;28;20029;-72
2024/02/18 02:23:11;;;;;;;8.75;4.00;;;12.10;99.90;;;;;;2086080;28;20032;-72
2024/02/18 02:24:12;;;;;;;10.30;4.78;;;12.10;99.90;;;;;;2086281;28;20056;-71
2024/02/18 02:25:13;;;;;;;10.63;4.78;;;12.10;99.90;;;;;;2085624;28;20029;-72
2024/02/18 02:26:16;;;;;;;7.03;4.30;;;12.10;99.90;;;;;;2084913;28;20021;-72
2024/02/18 02:27:24;;;;;;;9.82;4.55;;;12.10;99.90;;;;;;2084299;28;20108;-71
2024/02/18 02:28:25;;;;;;;10.57;4.32;;;12.10;99.90;;;;;;2085680;28;20078;-71
2024/02/18 02:29:27;;;;;;;7.13;4.40;;;12.10;99.90;;;;;;2084542;28;20033;-71
2024/02/18 02:30:28;;;;;;;7.15;4.32;;;12.00;99.90;;;;;;2085409;28;20118;-72
2024/02/18 02:31:28;;;;;;;9.27;4.45;;;12.10;99.90;;;;;;2084593;28;20117;-71
2024/02/18 02:32:29;;;;;;;9.13;4.43;;;12.10;99.90;;;;;;2084028;28;20095;-72
2024/02/18 02:33:30;;;;;;;9.52;4.43;;;12.10;99.90;;;;;;2083188;28;20102;-72
2024/02/18 02:34:31;;;;;;;6.90;3.90;;;12.00;99.90;;;;;;2082834;28;20095;-71
2024/02/18 02:35:32;;;;;;;9.05;4.97;;;12.10;99.90;;;;;;2085385;28;20048;-72
2024/02/18 02:36:33;;;;;;;7.88;4.47;;;12.00;99.90;;;;;;2083437;28;20033;-71
2024/02/18 02:37:34;;;;;;;8.98;4.60;;;12.00;99.90;;;;;;2087709;28;20113;-71
2024/02/18 02:38:36;;;;;;;5.65;3.92;;;12.10;99.90;;;;;;2085779;28;20029;-71
2024/02/18 02:39:36;;;;;;;9.38;4.38;;;12.00;99.90;;;;;;2085588;28;20385;-71
2024/02/18 02:40:37;;;;;;;7.50;4.38;;;12.10;99.90;;;;;;2083814;28;20033;-71
2024/02/18 02:41:38;;;;;;;8.30;4.38;;;12.10;99.90;;;;;;2086755;28;20027;-71
2024/02/18 02:42:39;;;;;;;9.65;4.25;;;12.00;99.90;;;;;;2083521;28;20021;-71
2024/02/18 02:43:39;;;;;;;8.57;4.60;;;12.00;99.90;;;;;;2088497;28;20040;-71
2024/02/18 02:44:40;;;;;;;8.75;4.38;;;12.10;99.90;;;;;;2086201;28;20040;-72
2024/02/18 02:45:40;;;;;;;6.82;4.30;;;12.10;99.90;;;;;;2083933;28;20029;-71
2024/02/18 02:46:41;;;;;;;8.63;4.10;;;12.10;99.90;;;;;;2085463;28;20063;-71
2024/02/18 02:47:41;;;;;;;8.45;4.45;;;12.10;99.90;;;;;;2084390;28;20025;-71
2024/02/18 02:48:42;;;;;;;8.95;4.63;;;12.00;99.90;;;;;;2087235;28;20649;-71
2024/02/18 02:49:43;;;;;;;8.77;4.18;;;12.00;99.90;;;;;;2084040;28;20393;-71
2024/02/18 02:50:43;;;;;;;7.22;4.30;;;12.00;99.90;;;;;;2082229;28;20108;-70
2024/02/18 02:51:44;;;;;;;10.75;5.00;;;12.00;99.90;;;;;;2083081;28;20370;-71
2024/02/18 02:52:45;;;;;;;9.68;4.57;;;12.00;99.90;;;;;;2083583;28;20036;-71
2024/02/18 02:53:46;;;;;;;9.10;4.38;;;12.00;99.90;;;;;;2084046;28;20021;-71
2024/02/18 02:54:46;;;;;;;9.80;4.50;;;12.00;99.90;;;;;;2085301;28;20029;-72
2024/02/18 02:55:47;;;;;;;9.82;4.63;;;12.00;99.90;;;;;;2084184;28;20202;-71
2024/02/18 02:56:47;;;;;;;7.65;3.65;;;12.00;99.90;;;;;;2084109;28;20124;-71
2024/02/18 02:57:48;;;;;;;7.68;4.43;;;12.00;99.90;;;;;;2084393;28;20044;-72
2024/02/18 02:58:49;;;;;;;6.53;3.80;;;12.00;99.90;;;;;;2085359;28;20029;-71
2024/02/18 02:59:49;;;;;;;6.68;4.63;;;12.00;99.90;;;;;;2087170;28;20128;-71
2024/02/18 03:00:50;;;;;;;10.80;4.82;;;12.00;99.90;;;;;;2084370;28;20532;-71
2024/02/18 03:01:50;;;;;;;8.75;4.30;;;12.00;99.90;;;;;;2084950;28;20052;-72
2024/02/18 03:02:51;;;;;;;7.47;4.20;;;12.00;99.90;;;;;;2086014;28;20025;-71
2024/02/18 03:03:51;;;;;;;7.88;4.47;;;12.00;99.90;;;;;;2083384;28;20021;-71
2024/02/18 03:04:52;;;;;;;7.03;4.10;;;12.00;99.90;;;;;;2083620;28;20053;-71
2024/02/18 03:05:53;;;;;;;8.00;4.43;;;12.00;99.90;;;;;;2083017;28;20039;-71
2024/02/18 03:06:53;;;;;;;10.50;4.38;;;12.00;99.90;;;;;;2085840;28;20025;-71
2024/02/18 03:07:54;;;;;;;10.48;4.72;;;12.00;99.90;;;;;;2084952;28;20086;-71
2024/02/18 03:08:54;;;;;;;9.50;4.93;;;12.00;99.90;;;;;;2084104;28;20123;-71
2024/02/18 03:09:55;;;;;;;7.82;4.10;;;12.00;99.90;;;;;;2084866;28;20032;-71
2024/02/18 03:10:57;;;;;;;13.68;4.40;;;12.00;99.90;;;;;;2085126;28;20026;-71
2024/02/18 03:11:58;;;;;;;9.27;4.25;;;12.00;99.90;;;;;;2084315;28;20083;-71
2024/02/18 03:12:59;;;;;;;6.90;4.45;;;12.00;99.90;;;;;;2084595;28;20497;-71
2024/02/18 03:13:59;;;;;;;10.32;5.13;;;12.00;99.90;;;;;;2082227;28;20461;-71
2024/02/18 03:15:00;;;;;;;7.93;4.30;;;12.00;99.90;;;;;;2083602;28;20099;-71
2024/02/18 03:16:00;;;;;;;10.73;4.97;;;12.00;99.90;;;;;;2084104;28;20076;-71
2024/02/18 03:17:01;;;;;;;10.35;4.07;;;12.00;99.90;;;;;;2084615;28;20538;-71
2024/02/18 03:18:03;;;;;;;7.43;4.30;;;12.00;99.90;;;;;;2084364;28;20047;-71
2024/02/18 03:19:04;;;;;;;8.13;4.32;;;12.00;99.90;;;;;;2085329;28;20048;-71
2024/02/18 03:20:07;;;;;;;7.30;4.15;;;12.00;99.90;;;;;;2081805;28;20033;-71
2024/02/18 03:21:08;;;;;;;8.25;4.97;;;12.00;99.90;;;;;;2085272;28;20029;-71
2024/02/18 03:22:09;;;;;;;8.70;4.72;;;12.00;99.90;;;;;;2082474;28;20160;-71
2024/02/18 03:23:09;;;;;;;10.15;4.80;;;12.00;99.90;;;;;;2085157;28;20040;-70
2024/02/18 03:24:10;;;;;;;8.50;4.45;;;12.00;99.90;;;;;;2084289;28;20029;-71
2024/02/18 03:25:11;;;;;;;6.22;3.88;;;12.00;99.90;;;;;;2082522;28;20101;-71
2024/02/18 03:26:11;;;;;;;6.65;4.72;;;12.00;99.90;;;;;;2084830;28;20029;-71
2024/02/18 03:27:12;;;;;;;8.57;5.13;;;12.00;99.90;;;;;;2082696;28;20032;-71
2024/02/18 03:28:12;;;;;;;8.45;4.35;;;12.00;99.90;;;;;;2083700;28;20025;-72
2024/02/18 03:29:13;;;;;;;9.65;4.97;;;12.00;99.90;;;;;;2084079;28;20108;-72
2024/02/18 03:30:13;;;;;;;8.73;4.70;;;12.00;99.90;;;;;;2082539;28;20028;-71
2024/02/18 03:31:18;;;;;;;6.30;4.47;;;12.00;99.90;;;;;;2082353;28;20030;-71
2024/02/18 03:32:18;;;;;;;8.98;4.75;;;12.00;99.90;;;;;;2083773;28;20061;-71
2024/02/18 03:33:19;;;;;;;8.98;4.90;;;12.00;99.90;;;;;;2082289;28;20037;-71
2024/02/18 03:34:19;;;;;;;9.02;4.85;;;12.00;99.90;;;;;;2082814;28;20061;-71
2024/02/18 03:35:27;;;;;;;8.02;5.13;;;12.00;99.90;;;;;;2086247;28;20029;-71
2024/02/18 03:36:27;;;;;;;6.78;4.50;;;12.00;99.90;;;;;;2081411;28;20665;-72
2024/02/18 03:37:28;;;;;;;8.00;4.82;;;12.00;99.90;;;;;;2085574;28;20032;-71
2024/02/18 03:38:28;;;;;;;12.20;5.22;;;12.00;99.90;;;;;;2083853;28;20049;-71
2024/02/18 03:39:29;;;;;;;7.57;4.88;;;12.00;99.90;;;;;;2083689;28;20033;-72
2024/02/18 03:40:29;;;;;;;7.35;4.90;;;12.00;99.90;;;;;;2082899;28;20022;-71
2024/02/18 03:41:30;;;;;;;7.78;4.50;;;12.00;99.90;;;;;;2084205;28;20099;-71
2024/02/18 03:42:30;;;;;;;7.28;4.60;;;12.00;99.90;;;;;;2084310;28;20032;-72
2024/02/18 03:43:31;;;;;;;7.88;4.80;;;12.00;99.90;;;;;;2086049;28;20040;-71
2024/02/18 03:44:32;;;;;;;8.43;4.63;;;12.00;99.90;;;;;;2087602;28;20519;-71
2024/02/18 03:45:33;;;;;;;7.75;4.55;;;12.00;99.90;;;;;;2086753;28;20086;-71
2024/02/18 03:46:33;;;;;;;7.28;4.50;;;12.00;99.90;;;;;;2084063;28;20875;-71
2024/02/18 03:47:34;;;;;;;7.22;4.93;;;12.00;99.90;;;;;;2083894;28;20413;-71
2024/02/18 03:48:34;;;;;;;8.02;5.05;;;12.00;99.90;;;;;;2084285;28;20028;-71
2024/02/18 03:49:35;;;;;;;11.13;5.00;;;12.00;99.90;;;;;;2084601;28;20030;-71
2024/02/18 03:50:35;;;;;;;9.20;4.93;;;12.00;99.90;;;;;;2081277;28;20029;-71
2024/02/18 03:51:36;;;;;;;9.85;5.00;;;12.00;99.90;;;;;;2082519;28;20029;-71
2024/02/18 03:52:36;;;;;;;9.80;4.90;;;12.00;99.90;;;;;;2085635;28;20108;-71
2024/02/18 03:53:37;;;;;;;8.45;4.75;;;12.00;99.90;;;;;;2083654;28;20029;-71
2024/02/18 03:54:37;;;;;;;7.03;4.78;;;12.00;99.90;;;;;;2082897;28;20037;-71
2024/02/18 03:55:38;;;;;;;9.48;4.80;;;12.00;99.90;;;;;;2083296;28;20124;-71
2024/02/18 03:56:38;;;;;;;7.40;4.93;;;12.00;99.90;;;;;;2082780;28;20048;-71
2024/02/18 03:57:40;;;;;;;10.38;5.55;;;12.00;99.90;;;;;;2083143;28;20477;-71
2024/02/18 03:58:40;;;;;;;8.77;4.82;;;12.00;99.90;;;;;;2083724;28;20029;-71
2024/02/18 03:59:42;;;;;;;7.85;4.82;;;11.90;99.90;;;;;;2082959;28;20412;-71
2024/02/18 04:00:45;;;;;;;7.65;4.60;;;12.00;99.90;;;;;;2084229;28;20036;-71
2024/02/18 04:01:46;;;;;;;9.07;5.03;;;12.00;99.90;;;;;;2084542;28;20052;-71
2024/02/18 04:02:47;;;;;;;10.10;5.50;;;11.90;99.90;;;;;;2083138;28;20029;-71
2024/02/18 04:03:47;;;;;;;11.55;5.28;;;11.90;99.90;;;;;;2084264;28;20079;-71
2024/02/18 04:04:48;;;;;;;8.05;4.95;;;11.90;99.90;;;;;;2082484;28;20482;-71
2024/02/18 04:05:48;;;;;;;8.80;5.18;;;11.90;99.90;;;;;;2084493;28;20030;-71
2024/02/18 04:06:49;;;;;;;7.53;4.97;;;11.90;99.90;;;;;;2084075;28;20049;-71
2024/02/18 04:07:49;;;;;;;9.18;5.28;;;11.90;99.90;;;;;;2084376;28;20381;-72
2024/02/18 04:08:50;;;;;;;7.22;5.30;;;11.90;99.90;;;;;;2084203;28;20033;-71
2024/02/18 04:09:50;;;;;;;7.53;5.47;;;11.90;99.90;;;;;;2084024;28;20044;-72
2024/02/18 04:10:51;;;;;;;9.90;5.55;;;11.90;99.90;;;;;;2084095;28;20025;-71
2024/02/18 04:11:53;;;;;;;10.30;5.38;;;11.90;99.90;;;;;;2081811;28;20042;-71
2024/02/18 04:12:54;;;;;;;8.75;5.40;;;11.90;99.90;;;;;;2082803;28;20660;-71
2024/02/18 04:13:55;;;;;;;7.45;5.28;;;11.90;99.90;;;;;;2083634;28;20038;-71
2024/02/18 04:14:55;;;;;;;13.13;5.88;;;11.90;99.90;;;;;;2083797;28;20029;-71
2024/02/18 04:15:56;;;;;;;8.07;5.20;;;11.90;99.90;;;;;;2084854;28;20112;-71
2024/02/18 04:16:56;;;;;;;9.07;5.30;;;11.90;99.90;;;;;;2084957;28;20428;-66
2024/02/18 04:17:57;;;;;;;8.70;5.43;;;11.90;99.90;;;;;;2085825;28;20394;-67
2024/02/18 04:18:57;;;;;;;9.85;5.32;;;11.90;99.90;;;;;;2082070;28;20076;-67
2024/02/18 04:19:58;;;;;;;7.72;5.03;;;11.80;99.90;;;;;;2083233;28;20021;-67
2024/02/18 04:20:58;;;;;;;9.25;4.88;;;11.90;99.90;;;;;;2083949;28;20375;-67
2024/02/18 04:21:59;;;;;;;8.23;5.00;;;11.90;99.90;;;;;;2083274;28;20423;-66
2024/02/18 04:22:59;;;;;;;12.27;5.78;;;11.90;99.90;;;;;;2082303;28;20033;-68
2024/02/18 04:24:03;;;;;;;7.72;4.78;;;11.80;99.90;;;;;;2085128;28;20025;-67
2024/02/18 04:25:04;;;;;;;7.18;5.55;;;11.80;99.90;;;;;;2082579;28;20037;-67
2024/02/18 04:26:04;;;;;;;9.52;5.45;;;11.90;99.90;;;;;;2084966;28;20040;-68
2024/02/18 04:27:07;;;;;;;8.60;5.38;;;11.90;99.90;;;;;;2084218;28;20049;-71
2024/02/18 04:28:08;;;;;;;8.65;5.32;;;11.80;99.90;;;;;;2081986;28;20025;-71
2024/02/18 04:29:08;;;;;;;8.70;4.80;;;11.80;99.90;;;;;;2085174;28;20029;-71
2024/02/18 04:30:09;;;;;;;7.78;5.47;;;11.80;99.90;;;;;;2083858;28;20029;-71
2024/02/18 04:31:10;;;;;;;10.30;5.18;;;11.80;99.90;;;;;;2083837;28;20059;-70
2024/02/18 04:32:11;;;;;;;7.47;5.38;;;11.80;99.90;;;;;;2085571;28;20523;-71
2024/02/18 04:33:12;;;;;;;8.35;4.85;;;11.80;99.90;;;;;;2083490;28;20110;-70
2024/02/18 04:34:12;;;;;;;9.40;5.25;;;11.80;99.90;;;;;;2084922;28;20296;-71
2024/02/18 04:35:13;;;;;;;7.88;5.05;;;11.80;99.90;;;;;;2085994;28;20021;-71
2024/02/18 04:36:13;;;;;;;12.15;6.72;;;11.80;99.90;;;;;;2082783;28;20018;-71
2024/02/18 04:37:14;;;;;;;8.93;4.93;;;11.80;99.90;;;;;;2083222;28;20196;-71
2024/02/18 04:38:14;;;;;;;9.75;5.90;;;11.80;99.90;;;;;;2084120;28;20478;-71
2024/02/18 04:39:15;;;;;;;7.47;4.85;;;11.80;99.90;;;;;;2083244;28;20114;-71
2024/02/18 04:40:16;;;;;;;10.63;5.70;;;11.80;99.90;;;;;;2084204;28;20468;-71
2024/02/18 04:41:16;;;;;;;9.93;5.30;;;11.70;99.90;;;;;;2084547;28;20025;-71
2024/02/18 04:42:17;;;;;;;7.93;5.55;;;11.70;99.90;;;;;;2083648;28;20461;-71
2024/02/18 04:43:17;;;;;;;6.90;5.13;;;11.70;99.90;;;;;;2087781;28;20120;-70
2024/02/18 04:44:18;;;;;;;6.55;4.88;;;11.70;99.90;;;;;;2084800;28;20471;-71
2024/02/18 04:45:18;;;;;;;6.93;5.38;;;11.70;99.90;;;;;;2084978;28;20022;-71
2024/02/18 04:46:19;;;;;;;8.25;5.47;;;11.70;99.90;;;;;;2082120;28;20021;-71
2024/02/18 04:47:19;;;;;;;8.68;5.65;;;11.70;99.90;;;;;;2083916;28;20036;-71
2024/02/18 04:48:20;;;;;;;7.95;5.68;;;11.70;99.90;;;;;;2082801;28;20029;-71
2024/02/18 04:49:20;;;;;;;9.60;5.20;;;11.70;99.90;;;;;;2083455;28;20042;-71
2024/02/18 04:50:21;;;;;;;8.70;5.05;;;11.70;99.90;;;;;;2084097;28;20088;-71
2024/02/18 04:51:22;;;;;;;8.13;4.95;;;11.70;99.90;;;;;;2083437;28;20021;-71
2024/02/18 04:52:23;;;;;;;7.90;5.30;;;11.70;99.90;;;;;;2082929;28;20440;-70
2024/02/18 04:53:23;;;;;;;7.82;5.00;;;11.70;99.90;;;;;;2084072;28;20033;-71
2024/02/18 04:54:24;;;;;;;8.57;5.35;;;11.70;99.90;;;;;;2084167;28;20066;-71
2024/02/18 04:55:24;;;;;;;7.82;5.28;;;11.70;99.90;;;;;;2084435;28;20032;-71
2024/02/18 04:56:25;;;;;;;9.43;5.45;;;11.60;99.90;;;;;;2083125;28;20034;-71
2024/02/18 04:57:25;;;;;;;9.00;5.15;;;11.60;99.90;;;;;;2084445;28;20028;-71
2024/02/18 04:58:26;;;;;;;8.73;5.43;;;11.70;99.90;;;;;;2084294;28;20037;-71
2024/02/18 04:59:26;;;;;;;10.02;6.03;;;11.60;99.90;;;;;;2076277;28;20075;-71
2024/02/18 05:00:27;;;;;;;10.05;5.25;;;11.60;99.90;;;;;;2085141;28;20029;-72
2024/02/18 05:01:27;;;;;;;9.70;5.40;;;11.60;99.90;;;;;;2083907;28;20032;-71
2024/02/18 05:02:28;;;;;;;9.15;5.45;;;11.60;99.90;;;;;;2083640;28;20168;-71
2024/02/18 05:03:28;;;;;;;8.48;5.13;;;11.60;99.90;;;;;;2081991;28;20030;-71
2024/02/18 05:04:31;;;;;;;8.00;5.43;;;11.60;99.90;;;;;;2084621;28;20029;-71
2024/02/18 05:05:31;;;;;;;8.48;5.28;;;11.60;99.90;;;;;;2081646;28;20091;-71
2024/02/18 05:06:32;;;;;;;9.88;5.43;;;11.60;99.90;;;;;;2083641;28;20079;-70
2024/02/18 05:07:32;;;;;;;9.18;5.47;;;11.60;99.90;;;;;;2083819;28;20103;-71
2024/02/18 05:08:33;;;;;;;7.18;5.32;;;11.50;99.90;;;;;;2083564;28;20628;-71
2024/02/18 05:09:34;;;;;;;6.20;4.70;;;11.50;99.90;;;;;;2084118;28;20037;-71
2024/02/18 05:10:37;;;;;;;10.18;5.53;;;11.50;99.90;;;;;;2082992;28;20025;-71
2024/02/18 05:11:37;;;;;;;6.40;5.15;;;11.50;99.90;;;;;;2083644;28;20040;-71
2024/02/18 05:12:38;;;;;;;5.70;4.85;;;11.50;99.90;;;;;;2084140;28;20112;-71
2024/02/18 05:13:38;;;;;;;6.82;4.93;;;11.50;99.90;;;;;;2084255;28;20040;-71
2024/02/18 05:14:39;;;;;;;7.25;5.10;;;11.50;99.90;;;;;;2084206;28;20040;-71